createdAt,value
2022-10-14T00:02:45.096Z,0.40
2022-10-14T00:05:48.536Z,0.32
2022-10-14T00:08:51.052Z,0.90
2022-10-14T00:11:53.405Z,0.50
2022-10-14T00:14:56.355Z,0.63
2022-10-14T00:17:58.690Z,0.90
2022-10-14T00:21:02.431Z,0.60
2022-10-14T00:24:06.911Z,0.30
2022-10-14T00:27:09.496Z,0.60
2022-10-14T00:30:12.276Z,0.38
2022-10-14T00:33:14.626Z,0.85
2022-10-14T00:36:19.034Z,0.70
2022-10-14T00:39:21.459Z,0.30
2022-10-14T00:42:23.837Z,0.30
2022-10-14T00:45:26.296Z,0.35
2022-10-14T00:48:30.216Z,0.63
2022-10-14T00:51:35.158Z,2.05
2022-10-14T00:54:42.458Z,0.77
2022-10-14T00:57:45.825Z,0.40
2022-10-14T01:00:48.248Z,0.40
2022-10-14T01:03:50.677Z,0.55
2022-10-14T01:07:17.519Z,0.60
2022-10-14T01:10:48.917Z,1.13
2022-10-14T01:14:05.042Z,2.30
2022-10-14T01:17:23.689Z,0.50
2022-10-14T01:20:32.709Z,0.50
2022-10-14T01:23:41.097Z,2.28
2022-10-14T01:27:12.199Z,0.60
2022-10-14T01:30:19.276Z,0.53
2022-10-14T01:33:28.550Z,0.20
2022-10-14T01:36:37.414Z,0.30
2022-10-14T01:39:47.980Z,1.02
2022-10-14T01:42:51.645Z,0.37
2022-10-14T01:45:55.778Z,0.63
2022-10-14T01:49:08.550Z,0.47
2022-10-14T01:52:23.212Z,1.23
2022-10-14T01:55:30.520Z,0.40
2022-10-14T01:58:35.102Z,0.43
2022-10-14T02:01:38.319Z,0.20
2022-10-14T02:04:41.463Z,0.80
2022-10-14T02:07:49.874Z,0.30
2022-10-14T02:10:52.559Z,1.27
2022-10-14T02:14:20.452Z,1.20
2022-10-14T02:17:47.809Z,0.60
2022-10-14T02:21:00.702Z,0.38
2022-10-14T02:24:14.167Z,0.77
2022-10-14T02:27:20.401Z,0.63
2022-10-14T02:30:24.607Z,0.43
2022-10-14T02:33:37.085Z,0.60
2022-10-14T02:36:44.610Z,0.52
2022-10-14T02:39:57.451Z,0.50
2022-10-14T02:43:00.753Z,0.90
2022-10-14T02:46:04.591Z,0.30
2022-10-14T02:49:07.163Z,1.27
2022-10-14T02:52:09.533Z,0.70
2022-10-14T02:55:15.399Z,0.85
2022-10-14T02:58:17.767Z,1.25
2022-10-14T03:01:20.446Z,1.70
2022-10-14T03:04:23.088Z,0.53
2022-10-14T03:07:27.728Z,0.20
2022-10-14T03:10:33.454Z,0.30
2022-10-14T03:13:35.899Z,0.57
2022-10-14T03:16:38.450Z,0.43
2022-10-14T03:19:41.155Z,0.60
2022-10-14T03:22:44.174Z,0.30
2022-10-14T03:25:47.359Z,2.95
2022-10-14T03:28:56.418Z,0.40
2022-10-14T03:32:04.842Z,1.17
2022-10-14T03:35:23.454Z,0.43
2022-10-14T03:38:29.111Z,0.20
2022-10-14T03:41:35.053Z,0.20
2022-10-14T03:44:37.944Z,0.20
2022-10-14T03:47:48.007Z,0.40
2022-10-14T03:50:50.469Z,0.50
2022-10-14T03:53:55.160Z,0.43
2022-10-14T03:57:03.108Z,0.20
2022-10-14T04:00:14.477Z,0.30
2022-10-14T04:03:16.732Z,0.20
2022-10-14T04:06:19.799Z,0.70
2022-10-14T04:09:22.298Z,0.35
2022-10-14T04:12:24.856Z,0.35
2022-10-14T04:15:36.811Z,1.30
2022-10-14T04:18:59.387Z,1.00
2022-10-14T04:22:01.828Z,0.23
2022-10-14T04:25:04.519Z,0.43
2022-10-14T04:28:07.311Z,0.30
2022-10-14T04:31:24.051Z,0.73
2022-10-14T04:34:32.017Z,0.13
2022-10-14T04:37:34.396Z,0.50
2022-10-14T04:40:45.801Z,0.63
2022-10-14T04:43:48.725Z,0.90
2022-10-14T04:47:01.679Z,0.40
2022-10-14T04:50:05.268Z,0.30
2022-10-14T04:53:13.112Z,0.27
2022-10-14T04:56:24.552Z,1.13
2022-10-14T04:59:32.776Z,0.40
2022-10-14T05:02:48.022Z,2.28
2022-10-14T05:05:51.302Z,1.10
2022-10-14T05:08:54.842Z,0.20
2022-10-14T05:11:58.485Z,1.02
2022-10-14T05:15:11.646Z,1.13
2022-10-14T05:18:36.287Z,0.82
2022-10-14T05:21:43.558Z,0.60
2022-10-14T05:24:51.547Z,0.43
2022-10-14T05:27:54.325Z,1.58
2022-10-14T05:30:57.252Z,0.95
2022-10-14T05:33:59.836Z,1.25
2022-10-14T05:37:02.750Z,0.93
2022-10-14T05:40:11.667Z,0.63
2022-10-14T05:43:14.438Z,2.40
2022-10-14T05:46:19.837Z,0.52
2022-10-14T05:49:30.599Z,0.45
2022-10-14T05:52:35.859Z,0.97
2022-10-14T05:55:47.386Z,0.70
2022-10-14T05:58:50.733Z,1.05
2022-10-14T06:01:54.324Z,5.35
2022-10-14T06:04:56.739Z,0.68
2022-10-14T06:07:59.335Z,2.00
2022-10-14T06:11:04.271Z,0.30
2022-10-14T06:14:06.678Z,0.73
2022-10-14T06:17:09.343Z,0.85
2022-10-14T06:20:13.263Z,2.53
2022-10-14T06:23:15.784Z,0.97
2022-10-14T06:26:18.351Z,0.37
2022-10-14T06:29:20.800Z,0.50
2022-10-14T06:32:23.583Z,0.77
2022-10-14T06:35:26.391Z,0.45
2022-10-14T06:38:29.399Z,0.67
2022-10-14T06:41:32.898Z,0.63
2022-10-14T06:44:35.228Z,3.72
2022-10-14T06:47:37.653Z,0.40
2022-10-14T06:50:40.397Z,0.55
2022-10-14T06:53:42.774Z,0.70
2022-10-14T06:56:45.197Z,0.43
2022-10-14T06:59:47.600Z,0.80
2022-10-14T07:02:52.817Z,0.40
2022-10-14T07:05:55.116Z,0.50
2022-10-14T07:08:57.511Z,0.90
2022-10-14T07:12:00.085Z,0.77
2022-10-14T07:15:02.626Z,1.35
2022-10-14T07:18:06.301Z,1.23
2022-10-14T07:21:08.953Z,1.20
2022-10-14T07:24:11.421Z,1.37
2022-10-14T07:27:16.031Z,1.33
2022-10-14T07:30:21.350Z,0.52
2022-10-14T07:33:23.751Z,0.70
2022-10-14T07:36:26.179Z,1.40
2022-10-14T07:39:29.102Z,0.47
2022-10-14T07:42:31.829Z,0.70
2022-10-14T07:45:36.394Z,0.60
2022-10-14T07:48:52.613Z,1.70
2022-10-14T07:51:59.184Z,0.60
2022-10-14T07:55:01.721Z,1.07
2022-10-14T07:58:04.112Z,1.40
2022-10-14T08:01:06.415Z,1.30
2022-10-14T08:04:10.729Z,0.73
2022-10-14T08:07:16.011Z,1.42
2022-10-14T08:10:18.560Z,2.10
2022-10-14T08:13:20.945Z,1.10
2022-10-14T08:16:26.276Z,0.90
2022-10-14T08:19:28.960Z,1.13
2022-10-14T08:22:31.769Z,1.00
2022-10-14T08:25:40.181Z,0.83
2022-10-14T08:28:43.141Z,1.00
2022-10-14T08:31:45.904Z,0.93
2022-10-14T08:34:48.314Z,1.20
2022-10-14T08:37:58.656Z,1.05
2022-10-14T08:41:07.151Z,1.57
2022-10-14T08:44:15.834Z,0.97
2022-10-14T08:47:24.066Z,0.95
2022-10-14T08:50:41.771Z,1.02
2022-10-14T08:53:48.675Z,1.50
2022-10-14T08:56:51.780Z,0.50
2022-10-14T08:59:55.329Z,0.60
2022-10-14T09:02:59.976Z,0.57
2022-10-14T09:06:06.929Z,0.95
2022-10-14T09:09:24.028Z,0.73
2022-10-14T09:12:30.984Z,0.70
2022-10-14T09:15:38.623Z,1.23
2022-10-14T09:18:49.751Z,0.45
2022-10-14T09:21:55.113Z,1.00
2022-10-14T09:24:58.784Z,1.15
2022-10-14T09:28:01.325Z,0.80
2022-10-14T09:31:11.279Z,1.13
2022-10-14T09:34:23.629Z,0.98
2022-10-14T09:37:29.844Z,0.88
2022-10-14T09:40:35.338Z,0.70
2022-10-14T09:46:41.043Z,0.90
2022-10-14T09:49:47.437Z,0.98
2022-10-14T09:52:53.757Z,1.25
2022-10-14T09:55:59.869Z,1.20
2022-10-14T09:59:05.103Z,1.08
2022-10-14T10:02:34.458Z,0.70
2022-10-14T10:05:37.322Z,1.25
2022-10-14T10:08:53.984Z,1.08
2022-10-14T10:11:56.383Z,0.63
2022-10-14T10:15:05.142Z,0.40
2022-10-14T10:18:18.971Z,0.40
2022-10-14T10:21:30.252Z,1.58
2022-10-14T10:24:32.929Z,0.60
2022-10-14T10:27:38.082Z,0.40
2022-10-14T10:30:58.302Z,0.80
2022-10-14T10:34:01.250Z,0.70
2022-10-14T10:37:33.547Z,1.13
2022-10-14T10:40:41.685Z,0.70
2022-10-14T10:44:18.517Z,0.70
2022-10-14T10:47:48.759Z,1.30
2022-10-14T10:51:05.512Z,1.00
2022-10-14T10:54:49.092Z,0.68
2022-10-14T10:58:09.025Z,1.05
2022-10-14T11:01:31.610Z,0.80
2022-10-14T11:04:50.989Z,0.80
2022-10-14T11:08:18.043Z,0.80
2022-10-14T11:11:50.297Z,0.70
2022-10-14T11:14:52.677Z,1.35
2022-10-14T11:18:03.777Z,0.70
2022-10-14T11:21:14.106Z,1.00
2022-10-14T11:24:33.540Z,1.20
2022-10-14T11:28:10.263Z,0.85
2022-10-14T11:31:20.158Z,0.80
2022-10-14T11:34:55.077Z,1.13
2022-10-14T11:38:18.943Z,1.10
2022-10-14T11:42:01.160Z,0.77
2022-10-14T11:45:37.352Z,0.73
2022-10-14T11:48:59.896Z,1.17
2022-10-14T11:52:07.787Z,1.23
2022-10-14T11:55:21.110Z,1.02
2022-10-14T11:58:26.726Z,0.90
2022-10-14T12:01:35.701Z,1.58
2022-10-14T12:04:46.399Z,0.55
2022-10-14T12:08:28.420Z,0.63
2022-10-14T12:11:42.814Z,1.10
2022-10-14T12:14:50.660Z,0.80
2022-10-14T12:18:02.563Z,1.75
2022-10-14T12:21:32.690Z,1.02
2022-10-14T12:24:41.812Z,0.60
2022-10-14T12:27:44.751Z,0.60
2022-10-14T12:30:47.851Z,0.87
2022-10-14T12:34:15.055Z,1.38
2022-10-14T12:37:31.773Z,1.15
2022-10-14T12:40:36.607Z,1.20
2022-10-14T12:43:38.925Z,1.20
2022-10-14T12:46:47.098Z,1.93
2022-10-14T12:49:52.506Z,2.28
2022-10-14T12:53:01.852Z,1.10
2022-10-14T12:56:05.987Z,1.42
2022-10-14T12:59:20.133Z,1.60
2022-10-14T13:02:37.457Z,1.43
2022-10-14T13:05:44.986Z,1.50
2022-10-14T13:09:12.090Z,1.30
2022-10-14T13:12:20.629Z,1.20
2022-10-14T13:15:36.927Z,1.50
2022-10-14T13:18:39.249Z,1.20
2022-10-14T13:21:41.528Z,1.75
2022-10-14T13:24:43.879Z,1.52
2022-10-14T13:27:52.959Z,1.20
2022-10-14T13:31:13.710Z,1.23
2022-10-14T13:34:45.207Z,1.20
2022-10-14T13:38:14.540Z,1.10
2022-10-14T13:41:29.914Z,1.05
2022-10-14T13:44:34.500Z,1.90
2022-10-14T13:47:37.170Z,1.13
2022-10-14T13:50:39.664Z,0.80
2022-10-14T13:53:59.759Z,1.02
2022-10-14T13:57:38.706Z,1.27
2022-10-14T14:00:40.761Z,0.70
2022-10-14T14:03:46.788Z,0.98
2022-10-14T14:07:03.412Z,0.73
2022-10-14T14:10:19.437Z,0.60
2022-10-14T14:13:23.424Z,1.17
2022-10-14T14:16:36.714Z,1.20
2022-10-14T14:19:46.412Z,0.60
2022-10-14T14:22:49.582Z,0.97
2022-10-14T14:26:17.967Z,0.55
2022-10-14T14:29:19.194Z,0.57
2022-10-14T14:32:25.326Z,0.73
2022-10-14T14:35:28.455Z,0.60
2022-10-14T14:38:33.867Z,0.93
2022-10-14T14:41:36.287Z,0.47
2022-10-14T14:44:39.648Z,0.55
2022-10-14T14:47:42.498Z,0.60
2022-10-14T14:50:46.131Z,0.60
2022-10-14T14:53:52.898Z,1.50
2022-10-14T14:56:57.597Z,1.20
2022-10-14T15:00:06.382Z,0.98
2022-10-14T15:03:09.274Z,1.10
2022-10-14T15:06:16.450Z,0.65
2022-10-14T15:09:30.645Z,0.93
2022-10-14T15:12:41.793Z,0.63
2022-10-14T15:15:55.474Z,0.50
2022-10-14T15:19:13.955Z,1.38
2022-10-14T15:22:16.272Z,0.90
2022-10-14T15:25:21.538Z,1.53
2022-10-14T15:28:33.711Z,1.77
2022-10-14T15:31:39.492Z,1.83
2022-10-14T15:34:41.929Z,0.95
2022-10-14T15:37:44.700Z,1.37
2022-10-14T15:40:48.249Z,1.17
2022-10-14T15:43:55.726Z,1.00
2022-10-14T15:47:16.682Z,1.40
2022-10-14T15:50:24.406Z,0.70
2022-10-14T15:53:29.425Z,1.37
2022-10-14T15:56:31.881Z,1.63
2022-10-14T15:59:34.235Z,0.80
2022-10-14T16:02:36.807Z,1.10
2022-10-14T16:05:40.713Z,1.80
2022-10-14T16:08:44.070Z,1.80
2022-10-14T16:11:48.034Z,2.10
2022-10-14T16:14:50.308Z,2.22
2022-10-14T16:17:53.205Z,1.83
2022-10-14T16:20:55.676Z,2.80
2022-10-14T16:24:01.180Z,3.00
2022-10-14T16:27:03.618Z,2.07
2022-10-14T16:30:06.975Z,1.52
2022-10-14T16:36:17.981Z,1.33
2022-10-14T16:39:20.399Z,3.17
2022-10-14T16:42:22.838Z,2.00
2022-10-14T16:45:25.180Z,2.00
2022-10-14T16:48:27.968Z,2.65
2022-10-14T16:51:30.629Z,1.88
2022-10-14T16:54:33.211Z,1.60
2022-10-14T16:57:35.542Z,3.17
2022-10-14T17:00:37.908Z,2.85
2022-10-14T17:03:43.368Z,2.20
2022-10-14T17:06:47.239Z,3.58
2022-10-14T17:09:51.338Z,5.00
2022-10-14T17:12:54.727Z,7.80
2022-10-14T17:16:03.899Z,4.30
2022-10-14T17:19:06.466Z,5.38
2022-10-14T17:22:09.057Z,3.08
2022-10-14T17:25:12.207Z,1.37
2022-10-14T17:28:14.528Z,1.97
2022-10-14T17:31:19.275Z,4.72
2022-10-14T17:34:21.648Z,1.48
2022-10-14T17:37:24.048Z,0.93
2022-10-14T17:40:26.412Z,1.90
2022-10-14T17:43:28.706Z,4.37
2022-10-14T17:46:32.180Z,4.35
2022-10-14T17:49:34.600Z,3.80
2022-10-14T17:52:36.923Z,4.35
2022-10-14T17:55:39.327Z,3.50
2022-10-14T17:58:41.714Z,2.93
2022-10-14T18:02:01.423Z,1.50
2022-10-14T18:05:05.178Z,2.55
2022-10-14T18:08:10.323Z,1.75
2022-10-14T18:11:13.112Z,5.10
2022-10-14T18:14:15.501Z,3.93
2022-10-14T18:17:17.827Z,3.38
2022-10-14T18:20:20.193Z,3.80
2022-10-14T18:23:30.815Z,3.60
2022-10-14T18:26:34.736Z,2.90
2022-10-14T18:29:38.426Z,3.53
2022-10-14T18:32:40.820Z,2.88
2022-10-14T18:35:46.453Z,4.10
2022-10-14T18:38:59.657Z,1.88
2022-10-14T18:42:02.041Z,4.60
2022-10-14T18:45:04.644Z,3.80
2022-10-14T18:48:07.048Z,4.15
2022-10-14T18:51:11.098Z,3.70
2022-10-14T18:54:16.167Z,5.13
2022-10-14T18:57:18.666Z,4.23
2022-10-14T19:00:21.055Z,2.93
2022-10-14T19:03:23.405Z,3.22
2022-10-14T19:06:25.770Z,3.45
2022-10-14T19:09:30.041Z,2.35
2022-10-14T19:12:42.109Z,2.17
2022-10-14T19:15:46.881Z,2.43
2022-10-14T19:18:57.931Z,1.63
2022-10-14T19:22:03.296Z,1.35
2022-10-14T19:25:05.989Z,3.83
2022-10-14T19:28:09.642Z,1.17
2022-10-14T19:31:21.804Z,2.50
2022-10-14T19:34:27.084Z,1.55
2022-10-14T19:37:29.745Z,2.22
2022-10-14T19:40:32.115Z,1.17
2022-10-14T19:43:35.342Z,2.17
2022-10-14T19:46:38.176Z,0.73
2022-10-14T19:49:41.168Z,1.35
2022-10-14T19:52:43.688Z,1.75
2022-10-14T19:55:46.162Z,1.00
2022-10-14T19:58:53.700Z,1.20
2022-10-14T20:01:56.121Z,0.47
2022-10-14T20:04:58.507Z,2.25
2022-10-14T20:08:01.991Z,0.55
2022-10-14T20:11:10.039Z,1.67
2022-10-14T20:14:12.464Z,1.60
2022-10-14T20:17:14.927Z,1.97
2022-10-14T20:20:17.767Z,1.08
2022-10-14T20:23:20.589Z,1.55
2022-10-14T20:26:23.048Z,1.08
2022-10-14T20:29:25.830Z,1.00
2022-10-14T20:32:28.201Z,2.50
2022-10-14T20:35:30.550Z,1.17
2022-10-14T20:38:33.611Z,1.10
2022-10-14T20:41:36.118Z,2.95
2022-10-14T20:47:53.299Z,0.80
2022-10-14T20:50:56.662Z,1.05
2022-10-14T20:54:03.987Z,3.67
2022-10-14T20:57:07.494Z,0.75
2022-10-14T21:00:10.328Z,0.77
2022-10-14T21:03:12.801Z,1.30
2022-10-14T21:06:18.544Z,0.82
2022-10-14T21:09:20.852Z,0.85
2022-10-14T21:12:23.381Z,1.13
2022-10-14T21:15:26.984Z,0.67
2022-10-14T21:18:29.365Z,3.30
2022-10-14T21:21:38.113Z,0.63
2022-10-14T21:24:47.559Z,0.45
2022-10-14T21:27:49.928Z,0.50
2022-10-14T21:30:52.241Z,0.93
2022-10-14T21:33:58.015Z,0.40
2022-10-14T21:37:03.603Z,0.40
2022-10-14T21:40:06.703Z,0.45
2022-10-14T21:43:09.010Z,0.60
2022-10-14T21:46:15.253Z,0.83
2022-10-14T21:49:18.446Z,0.80
2022-10-14T21:52:21.219Z,0.77
2022-10-14T21:55:23.810Z,0.30
2022-10-14T21:58:26.639Z,1.30
2022-10-14T22:01:30.094Z,1.10
2022-10-14T22:04:34.589Z,0.23
2022-10-14T22:07:39.874Z,0.60
2022-10-14T22:10:43.584Z,0.77
2022-10-14T22:13:46.728Z,0.70
2022-10-14T22:16:49.262Z,0.50
2022-10-14T22:19:51.529Z,0.87
2022-10-14T22:22:54.447Z,0.50
2022-10-14T22:26:00.627Z,0.38
2022-10-14T22:29:10.516Z,0.82
2022-10-14T22:32:12.846Z,0.33
2022-10-14T22:35:15.258Z,1.10
2022-10-14T22:38:17.621Z,1.48
2022-10-14T22:41:21.590Z,0.88
2022-10-14T22:44:23.919Z,0.52
2022-10-14T22:47:26.510Z,0.20
2022-10-14T22:50:29.028Z,0.50
2022-10-14T22:53:31.591Z,0.50
2022-10-14T22:56:34.134Z,0.28
2022-10-14T22:59:36.648Z,0.50
2022-10-14T23:02:39.031Z,0.43
2022-10-14T23:05:41.478Z,0.60
2022-10-14T23:08:44.206Z,0.38
2022-10-14T23:11:46.654Z,0.88
2022-10-14T23:14:48.956Z,0.77
2022-10-14T23:17:51.860Z,1.37
2022-10-14T23:20:54.419Z,0.30
2022-10-14T23:23:58.850Z,1.10
2022-10-14T23:27:01.397Z,2.47
2022-10-14T23:30:04.205Z,0.43
2022-10-14T23:33:10.652Z,0.77
2022-10-14T23:36:14.258Z,0.73
2022-10-14T23:39:16.594Z,1.48
2022-10-14T23:42:18.931Z,1.30
2022-10-14T23:45:21.287Z,0.40
2022-10-14T23:48:23.965Z,0.40
2022-10-14T23:51:26.387Z,0.40
2022-10-14T23:54:28.741Z,0.82
2022-10-14T23:57:31.242Z,1.20
